Paris, Missouri
Current Conditions -  °F | °C
As of 8:15 AM on Friday 24 Oct 2014 (Local Time) from KHAE Reporting Station
Moderate Fog Moderate Fog  
Wind Chill: 54°   Ceiling: 200
Heat Index: 54°   Visibility: 0mi
Dew Point: 52°   Wind: 5mph
Humidity: 94%   Direction: 220°SW
Pressure: 30.1"   Gusts: NA
Location:  39.48°N, 92°W
Report Text: KHAE 241315Z AUTO 22004KT M1/4SM FG OVC002 12/11 A3010 RMK AO2
Loading
Personal Weather Stations






























Interactive Weather Map New forecast layout! Learn more

10-Day Weather Forecast

Advertisements
Track Severe Weather on mobile